Time;durP1;ratioP1;P1;durP2;ratioP2;P2;SDS_P1;SDS_P2;PMS_P1;PMS_P2;Temp;Humidity;BMP_temperature;BMP_pressure;BME280_temperature;BME280_humidity;BME280_pressure;Samples;Min_cycle;Max_cycle;Signal;HPM_P1;HPM_P2
2023/11/22 00:02:02;;;;;;;10.10;4.22;;;3.90;99.90;;;;;;5016561;28;20493;-76
2023/11/22 00:04:28;;;;;;;12.05;3.58;;;3.90;99.90;;;;;;5015803;28;20455;-76
2023/11/22 00:06:54;;;;;;;9.93;4.00;;;3.80;99.90;;;;;;5015997;28;20109;-76
2023/11/22 00:09:22;;;;;;;12.82;4.40;;;3.80;99.90;;;;;;5016098;28;20030;-76
2023/11/22 00:11:48;;;;;;;5.90;2.95;;;3.80;99.90;;;;;;5016142;28;20188;-76
2023/11/22 00:14:14;;;;;;;14.48;4.10;;;3.80;99.90;;;;;;5014665;28;20032;-76
2023/11/22 00:16:39;;;;;;;12.10;4.60;;;3.80;99.90;;;;;;5016124;28;20018;-76
2023/11/22 00:19:06;;;;;;;8.15;3.47;;;3.80;99.90;;;;;;5014603;28;20021;-76
2023/11/22 00:21:35;;;;;;;8.20;3.47;;;3.80;99.90;;;;;;5015376;28;20417;-76
2023/11/22 00:24:01;;;;;;;8.65;3.75;;;;;;;;;;5014751;28;20107;-76
2023/11/22 00:26:27;;;;;;;11.10;3.58;;;3.80;99.90;;;;;;5015863;28;20088;-76
2023/11/22 00:28:53;;;;;;;10.65;3.40;;;3.80;99.90;;;;;;5014661;28;20022;-76
2023/11/22 00:31:19;;;;;;;11.25;3.95;;;3.80;99.90;;;;;;5016161;28;20021;-76
2023/11/22 00:33:44;;;;;;;11.70;4.15;;;3.80;99.90;;;;;;5014632;28;20030;-76
2023/11/22 00:36:10;;;;;;;9.38;3.63;;;3.80;99.90;;;;;;5016389;28;20104;-76
2023/11/22 00:38:37;;;;;;;7.68;3.20;;;3.80;99.90;;;;;;5014768;28;20098;-76
2023/11/22 00:41:02;;;;;;;8.45;4.00;;;3.80;99.90;;;;;;5014154;28;20021;-76
2023/11/22 00:43:28;;;;;;;9.93;4.05;;;3.90;99.90;;;;;;5015353;28;20079;-76
2023/11/22 00:45:54;;;;;;;8.75;3.67;;;3.90;99.90;;;;;;5014176;28;20436;-76
2023/11/22 00:48:19;;;;;;;11.43;3.70;;;3.80;99.90;;;;;;5015328;28;20022;-76
2023/11/22 00:50:45;;;;;;;9.40;3.65;;;3.80;99.90;;;;;;5015022;28;20057;-76
2023/11/22 00:53:10;;;;;;;11.35;4.35;;;3.90;99.90;;;;;;5014728;28;20033;-76
2023/11/22 00:55:36;;;;;;;9.13;4.00;;;3.90;99.90;;;;;;5015171;28;20045;-76
2023/11/22 00:58:04;;;;;;;8.15;3.70;;;3.90;99.90;;;;;;5015418;28;20014;-76
2023/11/22 01:00:30;;;;;;;9.07;3.57;;;3.90;99.90;;;;;;5015206;28;20018;-76
2023/11/22 01:02:56;;;;;;;7.28;3.38;;;3.80;99.90;;;;;;5015444;28;20567;-76
2023/11/22 01:05:22;;;;;;;7.50;3.17;;;3.90;99.90;;;;;;5015134;28;20018;-76
2023/11/22 01:07:48;;;;;;;7.53;3.28;;;3.80;99.90;;;;;;5015185;28;20021;-76
2023/11/22 01:10:15;;;;;;;7.25;3.25;;;3.80;99.90;;;;;;5014989;28;20501;-76
2023/11/22 01:12:41;;;;;;;10.95;3.60;;;3.80;99.90;;;;;;5014995;28;20033;-76
2023/11/22 01:15:08;;;;;;;7.40;3.40;;;3.70;99.90;;;;;;5014909;28;20018;-76
2023/11/22 01:17:36;;;;;;;8.52;3.42;;;3.70;99.90;;;;;;5014060;28;20022;-76
2023/11/22 01:20:03;;;;;;;7.78;3.03;;;3.70;99.90;;;;;;5015011;28;20053;-75
2023/11/22 01:22:29;;;;;;;8.13;3.30;;;3.60;99.90;;;;;;5013798;28;20021;-75
2023/11/22 01:24:54;;;;;;;10.88;3.38;;;3.60;99.90;;;;;;5015022;28;20033;-75
2023/11/22 01:27:20;;;;;;;10.15;3.63;;;3.50;99.90;;;;;;5014969;28;20040;-75
2023/11/22 01:29:45;;;;;;;8.25;3.10;;;3.50;99.90;;;;;;5013371;28;20030;-75
2023/11/22 01:32:11;;;;;;;9.50;4.05;;;3.40;99.90;;;;;;5013317;28;20040;-75
2023/11/22 01:34:37;;;;;;;8.68;3.70;;;3.30;99.90;;;;;;5014724;28;20026;-75
2023/11/22 01:37:03;;;;;;;9.88;3.97;;;3.30;99.90;;;;;;5014805;28;20037;-75
2023/11/22 01:39:29;;;;;;;8.45;3.88;;;3.30;99.90;;;;;;5014445;28;20042;-75
2023/11/22 01:41:56;;;;;;;11.05;4.38;;;3.30;99.90;;;;;;5013370;28;20109;-75
2023/11/22 01:44:21;;;;;;;9.45;3.65;;;3.20;99.90;;;;;;5013107;28;20028;-75
2023/11/22 01:46:47;;;;;;;10.57;4.05;;;3.20;99.90;;;;;;5014423;28;20026;-75
2023/11/22 01:49:13;;;;;;;11.10;3.95;;;3.10;99.90;;;;;;5012744;28;20033;-75
2023/11/22 01:51:39;;;;;;;9.52;4.28;;;3.10;99.90;;;;;;5014648;28;20083;-75
2023/11/22 01:54:07;;;;;;;8.75;3.65;;;3.00;99.90;;;;;;5014387;28;20025;-75
2023/11/22 01:56:34;;;;;;;9.95;3.60;;;3.00;99.90;;;;;;5013029;28;20125;-75
2023/11/22 01:59:00;;;;;;;10.40;3.72;;;2.90;99.90;;;;;;5014102;28;20080;-75
2023/11/22 02:01:27;;;;;;;8.70;3.50;;;3.00;99.90;;;;;;5014039;28;20022;-75
2023/11/22 02:03:53;;;;;;;11.10;4.10;;;3.00;99.90;;;;;;5013861;28;20030;-75
2023/11/22 02:06:21;;;;;;;12.65;4.28;;;3.00;99.90;;;;;;5014740;28;20038;-75
2023/11/22 02:08:47;;;;;;;9.53;4.00;;;3.00;99.90;;;;;;5012839;28;20080;-75
2023/11/22 02:11:12;;;;;;;10.18;3.90;;;3.00;99.90;;;;;;5014166;28;20390;-75
2023/11/22 02:13:38;;;;;;;10.73;4.18;;;3.00;99.90;;;;;;5013953;28;20112;-75
2023/11/22 02:16:04;;;;;;;8.70;3.88;;;3.00;99.90;;;;;;5014182;28;20029;-75
2023/11/22 02:18:30;;;;;;;9.65;4.15;;;3.00;99.90;;;;;;5013994;28;20389;-75
2023/11/22 02:20:56;;;;;;;8.15;3.58;;;3.00;99.90;;;;;;5012667;28;20049;-75
2023/11/22 02:23:22;;;;;;;13.13;4.63;;;3.00;99.90;;;;;;5013036;28;20434;-75
2023/11/22 02:25:47;;;;;;;13.20;3.85;;;2.90;99.90;;;;;;5014046;28;20064;-75
2023/11/22 02:28:13;;;;;;;8.70;3.78;;;2.90;99.90;;;;;;5013944;28;20033;-75
2023/11/22 02:30:39;;;;;;;9.10;4.00;;;2.90;99.90;;;;;;5014203;28;20029;-76
2023/11/22 02:33:04;;;;;;;11.20;5.18;;;2.80;99.90;;;;;;5014407;28;20037;-75
2023/11/22 02:35:33;;;;;;;10.27;4.30;;;2.70;99.90;;;;;;5013707;28;20393;-75
2023/11/22 02:38:00;;;;;;;12.68;4.82;;;2.70;99.90;;;;;;5012190;28;20083;-75
2023/11/22 02:40:25;;;;;;;14.80;4.40;;;2.70;99.90;;;;;;5012694;28;20018;-75
2023/11/22 02:42:53;;;;;;;12.98;4.22;;;2.70;99.90;;;;;;5014086;28;20030;-75
2023/11/22 02:45:22;;;;;;;11.88;4.03;;;2.70;99.90;;;;;;5012522;28;20033;-75
2023/11/22 02:47:49;;;;;;;11.77;4.68;;;2.70;99.90;;;;;;5014050;28;20026;-75
2023/11/22 02:50:18;;;;;;;13.65;4.53;;;2.70;99.90;;;;;;5014250;28;20457;-75
2023/11/22 02:52:43;;;;;;;12.27;4.82;;;2.70;99.90;;;;;;5013903;28;20026;-75
2023/11/22 02:55:09;;;;;;;10.38;3.85;;;2.70;99.90;;;;;;5012386;28;20117;-75
2023/11/22 02:57:36;;;;;;;11.20;4.10;;;2.70;99.90;;;;;;5012420;28;20014;-75
2023/11/22 03:00:05;;;;;;;10.82;4.32;;;2.70;99.90;;;;;;5014019;28;20088;-75
2023/11/22 03:02:33;;;;;;;8.48;4.13;;;2.70;99.90;;;;;;5016496;28;20021;-75
2023/11/22 03:04:59;;;;;;;10.13;4.43;;;2.60;99.90;;;;;;5017696;28;20033;-75
2023/11/22 03:07:28;;;;;;;16.90;4.88;;;2.60;99.90;;;;;;5016175;28;20026;-75
2023/11/22 03:09:54;;;;;;;9.38;3.70;;;2.50;99.90;;;;;;5017183;28;20029;-75
2023/11/22 03:12:23;;;;;;;8.45;3.75;;;2.50;99.90;;;;;;5016161;28;20559;-75
2023/11/22 03:14:48;;;;;;;9.60;3.65;;;2.50;99.90;;;;;;5017327;28;20083;-75
2023/11/22 03:17:17;;;;;;;11.80;3.78;;;2.50;99.90;;;;;;5015911;28;20026;-75
2023/11/22 03:19:45;;;;;;;;;;;2.50;99.90;;;;;;5016471;28;20017;-75
2023/11/22 03:22:10;;;;;;;11.93;4.35;;;2.50;99.90;;;;;;5017379;28;19912;-75
2023/11/22 03:24:38;;;;;;;11.80;5.03;;;2.50;99.90;;;;;;5017045;28;20017;-76
2023/11/22 03:27:03;;;;;;;10.85;4.38;;;2.50;99.90;;;;;;5017465;28;20164;-75
2023/11/22 03:29:29;;;;;;;10.45;4.50;;;2.50;99.90;;;;;;5015649;28;20042;-75
2023/11/22 03:31:55;;;;;;;10.40;4.28;;;2.50;99.90;;;;;;5016841;28;20527;-75
2023/11/22 03:34:20;;;;;;;12.77;4.65;;;2.50;99.90;;;;;;5016385;28;20060;-75
2023/11/22 03:36:46;;;;;;;13.18;4.45;;;2.50;99.90;;;;;;5016832;28;20022;-75
2023/11/22 03:39:14;;;;;;;10.60;4.10;;;2.60;99.90;;;;;;5015205;28;20069;-75
2023/11/22 03:41:40;;;;;;;12.97;4.80;;;2.60;99.90;;;;;;5016643;28;20014;-75
2023/11/22 03:44:08;;;;;;;12.90;5.00;;;2.60;99.90;;;;;;5015706;28;20022;-75
2023/11/22 03:46:35;;;;;;;9.98;4.20;;;2.60;99.90;;;;;;5016571;28;20029;-75
2023/11/22 03:49:02;;;;;;;11.75;4.30;;;2.60;99.90;;;;;;5016975;28;20022;-76
2023/11/22 03:51:28;;;;;;;15.85;5.32;;;2.70;99.90;;;;;;5016195;28;20176;-75
2023/11/22 03:53:53;;;;;;;11.65;5.28;;;2.70;99.90;;;;;;5016132;28;20105;-75
2023/11/22 03:56:19;;;;;;;13.02;4.25;;;2.70;99.90;;;;;;5016241;28;20069;-75
2023/11/22 03:58:45;;;;;;;13.77;5.10;;;2.70;99.90;;;;;;5016172;28;20018;-75
2023/11/22 04:01:10;;;;;;;11.50;4.80;;;2.70;99.90;;;;;;5016386;28;20025;-75
2023/11/22 04:03:36;;;;;;;10.90;4.35;;;2.70;99.90;;;;;;5016114;28;20022;-75
2023/11/22 04:06:02;;;;;;;12.27;4.68;;;2.80;99.90;;;;;;5016301;28;20036;-75
2023/11/22 04:08:27;;;;;;;11.43;4.70;;;2.70;99.90;;;;;;5016522;28;20105;-76
2023/11/22 04:10:53;;;;;;;13.60;5.63;;;2.70;99.90;;;;;;5015002;28;20064;-75
2023/11/22 04:13:18;;;;;;;10.93;4.00;;;2.70;99.90;;;;;;5015628;28;20030;-75
2023/11/22 04:15:44;;;;;;;12.07;4.88;;;2.70;99.90;;;;;;5014806;28;20097;-75
2023/11/22 04:18:10;;;;;;;9.75;3.65;;;2.60;99.90;;;;;;5014535;28;20035;-75
2023/11/22 04:20:35;;;;;;;11.45;4.35;;;2.60;99.90;;;;;;5015738;28;20556;-75
2023/11/22 04:23:01;;;;;;;9.82;3.83;;;2.70;99.90;;;;;;5015766;28;20034;-75
2023/11/22 04:25:27;;;;;;;14.32;4.45;;;2.60;99.90;;;;;;5015438;28;20057;-75
2023/11/22 04:27:52;;;;;;;15.55;5.50;;;2.70;99.90;;;;;;5014564;28;20084;-75
2023/11/22 04:30:18;;;;;;;12.65;4.65;;;2.70;99.90;;;;;;5014343;28;20033;-75
2023/11/22 04:32:44;;;;;;;11.98;4.80;;;2.70;99.90;;;;;;5016154;28;20022;-75
2023/11/22 04:35:10;;;;;;;11.60;4.25;;;2.70;99.90;;;;;;5015480;28;20101;-75
2023/11/22 04:37:36;;;;;;;9.23;3.70;;;2.70;99.90;;;;;;5015343;28;20530;-75
2023/11/22 04:40:05;;;;;;;11.00;3.72;;;2.70;99.90;;;;;;5015418;28;20042;-75
2023/11/22 04:42:30;;;;;;;14.75;4.57;;;2.70;99.90;;;;;;5014402;28;20114;-75
2023/11/22 04:44:56;;;;;;;10.25;4.30;;;2.70;99.90;;;;;;5016285;28;20061;-76
2023/11/22 04:47:22;;;;;;;11.45;5.13;;;2.70;99.90;;;;;;5015826;28;20026;-75
2023/11/22 04:49:48;;;;;;;13.73;4.78;;;2.70;99.90;;;;;;5015416;28;20034;-75
2023/11/22 04:52:14;;;;;;;12.80;4.43;;;2.80;99.90;;;;;;5015418;28;20026;-76
2023/11/22 04:54:39;;;;;;;11.63;4.65;;;2.80;99.90;;;;;;5015318;28;20503;-75
2023/11/22 04:57:05;;;;;;;14.48;5.47;;;2.80;99.90;;;;;;5015165;28;20071;-75
2023/11/22 04:59:31;;;;;;;11.40;5.32;;;2.80;99.90;;;;;;5014589;28;20482;-75
2023/11/22 05:01:57;;;;;;;14.25;4.43;;;2.80;99.90;;;;;;5014029;28;20014;-75
2023/11/22 05:04:23;;;;;;;12.55;4.50;;;2.90;99.90;;;;;;5014694;28;20024;-75
2023/11/22 05:06:48;;;;;;;11.85;4.68;;;2.90;99.90;;;;;;5015494;28;20018;-75
2023/11/22 05:09:14;;;;;;;13.60;4.82;;;2.90;99.90;;;;;;5014910;28;20014;-76
2023/11/22 05:11:41;;;;;;;11.35;4.80;;;2.90;99.90;;;;;;5015305;28;20025;-75
2023/11/22 05:14:07;;;;;;;13.30;5.05;;;2.90;99.90;;;;;;5014853;28;20057;-75
2023/11/22 05:16:33;;;;;;;11.82;4.70;;;2.90;99.90;;;;;;5015482;28;20068;-75
2023/11/22 05:19:00;;;;;;;14.60;5.65;;;2.90;99.90;;;;;;5013705;28;20441;-75
2023/11/22 05:21:26;;;;;;;13.32;4.90;;;2.90;99.90;;;;;;5013846;28;20068;-75
2023/11/22 05:23:54;;;;;;;13.57;5.72;;;2.90;99.90;;;;;;5014447;28;20034;-75
2023/11/22 05:26:20;;;;;;;11.32;5.13;;;2.90;99.90;;;;;;5013341;28;20025;-75
2023/11/22 05:28:47;;;;;;;13.60;5.15;;;3.00;99.90;;;;;;5013247;28;20152;-75
2023/11/22 05:31:13;;;;;;;14.43;5.50;;;3.00;99.90;;;;;;5014447;28;20105;-75
2023/11/22 05:33:39;;;;;;;11.88;4.78;;;3.00;99.90;;;;;;5014142;28;20096;-75
2023/11/22 05:36:05;;;;;;;12.77;5.13;;;3.00;99.90;;;;;;5013175;28;20018;-75
2023/11/22 05:38:33;;;;;;;13.93;5.05;;;3.10;99.90;;;;;;5013093;28;20057;-75
2023/11/22 05:40:59;;;;;;;12.18;5.00;;;3.10;99.90;;;;;;5014432;28;20050;-75
2023/11/22 05:43:26;;;;;;;13.38;5.25;;;3.10;99.90;;;;;;5014724;28;20117;-75
2023/11/22 05:45:52;;;;;;;13.02;5.07;;;3.10;99.90;;;;;;5014421;28;20389;-75
2023/11/22 05:48:19;;;;;;;12.40;5.07;;;3.10;99.90;;;;;;5014840;28;20022;-75
2023/11/22 05:50:45;;;;;;;12.77;5.10;;;3.00;99.90;;;;;;5013196;28;20025;-75
2023/11/22 05:53:11;;;;;;;13.73;5.55;;;3.10;99.90;;;;;;5013565;28;20120;-75
2023/11/22 05:55:37;;;;;;;12.45;5.00;;;3.10;99.90;;;;;;5013161;28;20021;-75
2023/11/22 05:58:03;;;;;;;11.98;5.00;;;3.10;99.90;;;;;;5014489;28;20041;-76
2023/11/22 06:00:29;;;;;;;11.52;4.90;;;3.00;99.90;;;;;;5014727;28;20092;-75
2023/11/22 06:02:55;;;;;;;15.60;6.07;;;3.00;99.90;;;;;;5013047;28;20482;-76
2023/11/22 06:05:21;;;;;;;9.45;4.80;;;3.00;99.90;;;;;;5013286;28;20018;-75
2023/11/22 06:07:47;;;;;;;20.02;5.55;;;3.00;99.90;;;;;;5015047;28;20084;-75
2023/11/22 06:10:14;;;;;;;12.50;5.43;;;3.00;99.90;;;;;;5014401;28;20022;-75
2023/11/22 06:12:40;;;;;;;13.48;4.75;;;3.00;99.90;;;;;;5014410;28;20021;-75
2023/11/22 06:15:06;;;;;;;12.48;5.38;;;3.00;99.90;;;;;;5014442;28;20018;-75
2023/11/22 06:17:31;;;;;;;11.68;5.20;;;3.00;99.90;;;;;;5014809;28;20037;-75
2023/11/22 06:19:57;;;;;;;15.90;5.13;;;3.10;99.90;;;;;;5014222;28;20026;-75
2023/11/22 06:22:22;;;;;;;12.05;4.88;;;3.00;99.90;;;;;;5014127;28;20385;-75
2023/11/22 06:24:48;;;;;;;12.85;5.20;;;3.10;99.90;;;;;;5014284;28;20481;-75
2023/11/22 06:27:15;;;;;;;11.23;4.95;;;3.00;99.90;;;;;;5013175;28;20091;-75
2023/11/22 06:29:44;;;;;;;15.07;4.70;;;3.00;99.90;;;;;;5014188;28;20018;-74
2023/11/22 06:32:09;;;;;;;10.48;4.28;;;3.00;99.90;;;;;;5014330;28;20366;-75
2023/11/22 06:34:36;;;;;;;14.18;5.10;;;3.00;99.90;;;;;;5014276;28;20133;-75
2023/11/22 06:37:02;;;;;;;14.77;5.07;;;3.00;99.90;;;;;;5017917;28;20025;-75
2023/11/22 06:39:27;;;;;;;13.85;4.80;;;3.00;99.90;;;;;;5018267;28;20063;-75
2023/11/22 06:41:53;;;;;;;13.75;5.65;;;3.00;99.90;;;;;;5016371;28;20109;-75
2023/11/22 06:44:18;;;;;;;14.05;5.50;;;3.00;99.90;;;;;;5016667;28;20070;-75
2023/11/22 06:46:44;;;;;;;12.98;4.78;;;3.00;99.90;;;;;;5017822;28;20069;-75
2023/11/22 06:49:09;;;;;;;13.82;5.20;;;3.00;99.90;;;;;;5018226;28;20018;-75
2023/11/22 06:51:35;;;;;;;16.52;4.70;;;3.00;99.90;;;;;;5016615;28;20551;-75
2023/11/22 06:54:03;;;;;;;13.15;4.80;;;3.10;99.90;;;;;;5017875;28;20094;-75
2023/11/22 06:56:29;;;;;;;14.88;5.43;;;3.10;99.90;;;;;;5016658;28;20026;-75
2023/11/22 06:58:57;;;;;;;14.65;5.40;;;3.10;99.90;;;;;;5016321;28;20033;-75
2023/11/22 07:01:26;;;;;;;17.02;5.65;;;3.10;99.90;;;;;;5017739;28;20029;-75
2023/11/22 07:03:52;;;;;;;15.35;4.90;;;3.10;99.90;;;;;;5017563;28;20032;-75
2023/11/22 07:06:18;;;;;;;14.70;5.28;;;3.10;99.90;;;;;;5016952;28;20069;-75
2023/11/22 07:08:47;;;;;;;14.77;5.38;;;3.10;99.90;;;;;;5018014;28;20466;-75
2023/11/22 07:11:13;;;;;;;15.05;5.45;;;3.10;99.90;;;;;;5016626;28;20030;-75
2023/11/22 07:13:39;;;;;;;14.05;5.85;;;3.10;99.90;;;;;;5016435;28;20022;-75
2023/11/22 07:16:07;;;;;;;13.77;6.57;;;3.20;99.90;;;;;;5017662;28;20432;-75
2023/11/22 07:18:33;;;;;;;16.52;5.78;;;3.20;99.90;;;;;;5015801;28;20041;-75
2023/11/22 07:20:59;;;;;;;16.00;5.45;;;3.20;99.90;;;;;;5016788;28;20049;-75
2023/11/22 07:23:28;;;;;;;16.95;5.95;;;3.20;99.90;;;;;;5017457;28;20049;-74
2023/11/22 07:25:54;;;;;;;14.07;5.85;;;3.20;99.90;;;;;;5016260;28;20022;-74
2023/11/22 07:28:20;;;;;;;11.93;4.85;;;3.10;99.90;;;;;;5017114;28;20026;-74
2023/11/22 07:30:48;;;;;;;14.55;5.43;;;3.10;99.90;;;;;;5017701;28;20457;-74
2023/11/22 07:33:14;;;;;;;12.93;4.93;;;3.10;99.90;;;;;;5017557;28;20026;-74
2023/11/22 07:35:40;;;;;;;14.23;5.60;;;3.10;99.90;;;;;;5017021;28;20026;-75
2023/11/22 07:38:08;;;;;;;12.50;4.70;;;3.20;99.90;;;;;;5015340;28;20030;-75
2023/11/22 07:40:34;;;;;;;13.40;5.63;;;3.10;99.90;;;;;;5017020;28;20029;-74
2023/11/22 07:43:01;;;;;;;14.00;5.43;;;3.10;99.90;;;;;;5016679;28;20017;-74
2023/11/22 07:45:27;;;;;;;17.08;6.10;;;3.10;99.90;;;;;;5015666;28;20026;-74
2023/11/22 07:47:55;;;;;;;16.58;5.93;;;3.10;99.90;;;;;;5014985;28;20034;-74
2023/11/22 07:50:21;;;;;;;16.50;5.80;;;3.10;99.90;;;;;;5016674;28;20025;-74
2023/11/22 07:52:48;;;;;;;14.82;5.45;;;3.10;99.90;;;;;;5015963;28;20026;-74
2023/11/22 07:55:14;;;;;;;15.73;6.07;;;3.10;99.90;;;;;;5016804;28;20018;-75
2023/11/22 07:57:40;;;;;;;16.63;6.00;;;3.10;99.90;;;;;;5015033;28;20029;-75
2023/11/22 08:00:07;;;;;;;15.35;5.88;;;3.10;99.90;;;;;;5016643;28;20020;-74
2023/11/22 08:02:34;;;;;;;16.80;5.60;;;3.10;99.90;;;;;;5017122;28;20032;-76
2023/11/22 08:05:01;;;;;;;17.98;6.80;;;3.10;99.90;;;;;;5016970;28;20535;-76
2023/11/22 08:07:27;;;;;;;15.23;5.18;;;3.20;99.90;;;;;;5016653;28;20018;-76
2023/11/22 08:09:53;;;;;;;17.90;5.97;;;3.20;99.90;;;;;;5016730;28;20037;-75
2023/11/22 08:12:19;;;;;;;14.38;5.75;;;3.20;99.90;;;;;;5016950;28;20030;-76
2023/11/22 08:14:45;;;;;;;19.88;5.97;;;3.30;99.90;;;;;;5016715;28;20095;-76
2023/11/22 08:17:11;;;;;;;15.55;5.88;;;3.30;99.90;;;;;;5015254;28;20114;-76
2023/11/22 08:19:39;;;;;;;20.02;7.47;;;3.30;99.90;;;;;;5015122;28;20022;-76
2023/11/22 08:22:05;;;;;;;14.82;5.03;;;3.20;99.90;;;;;;5016143;28;20487;-76
2023/11/22 08:24:32;;;;;;;13.95;5.82;;;3.30;99.90;;;;;;5016362;28;20046;-75
2023/11/22 08:26:58;;;;;;;16.30;5.93;;;3.30;99.90;;;;;;5014754;28;20045;-75
2023/11/22 08:29:24;;;;;;;15.77;5.53;;;3.40;99.90;;;;;;5016566;28;20022;-76
2023/11/22 08:31:50;;;;;;;14.07;5.75;;;3.40;99.90;;;;;;5015930;28;20500;-76
2023/11/22 08:34:16;;;;;;;18.10;6.50;;;3.50;99.90;;;;;;5014280;28;20069;-76
2023/11/22 08:36:42;;;;;;;14.98;6.43;;;3.50;99.90;;;;;;5015999;28;20109;-77
2023/11/22 08:39:08;;;;;;;17.27;6.70;;;3.60;99.90;;;;;;5014506;28;20049;-77
2023/11/22 08:41:33;;;;;;;14.73;5.88;;;3.80;99.90;;;;;;5016043;28;20026;-77
2023/11/22 08:44:00;;;;;;;15.73;6.15;;;3.90;99.90;;;;;;5016099;28;20081;-77
2023/11/22 08:46:25;;;;;;;18.75;7.30;;;3.90;99.90;;;;;;5015849;28;20029;-77
2023/11/22 08:48:51;;;;;;;21.88;7.88;;;4.00;99.90;;;;;;5014455;28;20470;-77
2023/11/22 08:51:17;;;;;;;24.13;7.60;;;4.10;99.90;;;;;;5015697;28;20393;-77
2023/11/22 08:53:46;;;;;;;17.20;7.28;;;4.20;99.90;;;;;;5014462;28;20079;-77
2023/11/22 08:56:12;;;;;;;16.10;7.03;;;4.20;99.90;;;;;;5015471;28;20025;-77
2023/11/22 08:58:38;;;;;;;17.95;6.05;;;4.30;99.90;;;;;;5013156;28;20018;-77
2023/11/22 09:01:05;;;;;;;17.15;6.78;;;4.40;99.90;;;;;;5015635;28;20466;-77
2023/11/22 09:03:31;;;;;;;15.85;6.55;;;4.40;99.90;;;;;;5014122;28;20022;-77
2023/11/22 09:05:57;;;;;;;17.73;7.03;;;4.50;99.90;;;;;;5015230;28;20124;-77
2023/11/22 09:08:23;;;;;;;16.50;6.80;;;4.60;99.90;;;;;;5013946;28;20389;-77
2023/11/22 09:10:50;;;;;;;15.65;6.60;;;4.60;99.90;;;;;;5014572;28;20025;-77
2023/11/22 09:13:16;;;;;;;21.15;7.93;;;4.60;99.90;;;;;;5013836;28;20026;-77
2023/11/22 09:15:44;;;;;;;18.35;7.50;;;4.70;99.90;;;;;;5015269;28;20105;-77
2023/11/22 09:18:12;;;;;;;11.98;4.82;;;4.90;99.90;;;;;;5015125;28;20559;-77
2023/11/22 09:20:38;;;;;;;20.43;7.93;;;4.80;99.90;;;;;;5014039;28;20053;-77
2023/11/22 09:23:04;;;;;;;19.92;7.35;;;;;;;;;;5015528;28;20080;-77
2023/11/22 09:25:30;;;;;;;17.08;6.80;;;5.00;99.90;;;;;;5015262;28;20465;-77
2023/11/22 09:28:00;;;;;;;17.83;7.43;;;5.00;99.90;;;;;;5014951;28;20065;-77
2023/11/22 09:30:45;;;;;;;14.52;6.00;;;5.00;99.90;;;;;;5013640;28;20056;-77
2023/11/22 09:33:12;;;;;;;18.42;6.35;;;5.10;99.90;;;;;;5013532;28;20029;-77
2023/11/22 09:35:39;;;;;;;15.50;6.88;;;5.00;99.90;;;;;;5013922;28;20048;-77
2023/11/22 09:38:11;;;;;;;19.35;7.57;;;5.10;99.90;;;;;;5014823;28;20033;-77
2023/11/22 09:40:47;;;;;;;21.90;7.53;;;5.10;99.90;;;;;;5014951;28;20465;-77
2023/11/22 09:43:17;;;;;;;19.83;7.20;;;5.20;99.90;;;;;;5014813;28;20029;-77
2023/11/22 09:45:48;;;;;;;17.48;7.05;;;5.20;99.90;;;;;;5013441;28;20536;-77
2023/11/22 09:48:18;;;;;;;18.80;7.07;;;5.40;99.90;;;;;;5014822;28;20418;-77
2023/11/22 09:51:03;;;;;;;20.73;7.70;;;5.40;99.90;;;;;;5013843;28;20018;-77
2023/11/22 09:54:07;;;;;;;19.58;7.55;;;5.50;99.90;;;;;;5015217;28;20029;-77
2023/11/22 09:56:33;;;;;;;17.38;7.28;;;5.50;99.90;;;;;;5014826;28;20115;-77
2023/11/22 09:59:02;;;;;;;19.33;7.47;;;5.50;99.90;;;;;;5014486;28;20079;-77
2023/11/22 10:01:28;;;;;;;;;;;5.60;99.90;;;;;;5014626;28;20022;-77
2023/11/22 10:03:54;;;;;;;18.77;7.53;;;5.60;99.90;;;;;;5015120;28;20395;-77
2023/11/22 10:06:20;;;;;;;23.42;7.15;;;5.60;99.90;;;;;;5014644;28;20036;-77
2023/11/22 10:08:49;;;;;;;19.92;7.55;;;5.70;99.90;;;;;;5014574;28;20076;-77
2023/11/22 10:11:17;;;;;;;15.25;6.45;;;6.00;99.90;;;;;;5013850;28;20049;-77
2023/11/22 10:13:45;;;;;;;14.85;6.25;;;9.60;99.90;;;;;;5014732;28;20486;-77
2023/11/22 10:16:12;;;;;;;14.63;7.18;;;5.70;99.90;;;;;;5014662;28;20022;-77
2023/11/22 10:18:46;;;;;;;16.35;7.28;;;5.80;99.90;;;;;;5014237;28;20026;-77
2023/11/22 10:21:23;;;;;;;15.63;6.93;;;5.80;99.90;;;;;;5013227;28;20434;-77
2023/11/22 10:24:09;;;;;;;23.05;7.43;;;5.80;99.90;;;;;;5013058;28;20045;-77
2023/11/22 10:26:35;;;;;;;18.55;7.03;;;5.90;99.90;;;;;;5014106;28;20041;-76
2023/11/22 10:29:02;;;;;;;16.63;7.53;;;5.80;99.90;;;;;;5014495;28;20080;-77
2023/11/22 10:31:27;;;;;;;16.17;6.63;;;5.90;99.90;;;;;;5014282;28;20018;-77
2023/11/22 10:33:55;;;;;;;17.02;7.13;;;5.80;99.90;;;;;;5014981;28;20493;-77
2023/11/22 10:36:22;;;;;;;17.85;6.93;;;5.80;99.90;;;;;;5014586;28;20018;-77
2023/11/22 10:38:48;;;;;;;18.15;7.50;;;5.90;99.90;;;;;;5014379;28;20056;-77
2023/11/22 10:41:14;;;;;;;22.35;8.55;;;6.00;99.90;;;;;;5014142;28;20022;-77
2023/11/22 10:43:42;;;;;;;19.13;7.38;;;6.00;99.90;;;;;;5013063;28;20029;-76
2023/11/22 10:46:10;;;;;;;19.45;8.38;;;6.10;99.90;;;;;;5014551;28;20029;-77
2023/11/22 10:48:36;;;;;;;19.60;7.43;;;6.20;99.90;;;;;;5014759;28;20478;-77
2023/11/22 10:51:04;;;;;;;17.05;6.35;;;6.40;99.90;;;;;;5013224;28;20025;-77
2023/11/22 10:53:38;;;;;;;20.23;7.85;;;6.30;99.90;;;;;;5013204;28;20029;-77
2023/11/22 10:56:17;;;;;;;18.67;7.45;;;6.40;99.90;;;;;;5013112;28;20026;-77
2023/11/22 10:58:47;;;;;;;16.70;6.50;;;6.40;99.90;;;;;;5014773;28;20022;-77
2023/11/22 11:01:13;;;;;;;19.52;7.43;;;6.50;99.90;;;;;;5014174;28;20033;-77
2023/11/22 11:03:40;;;;;;;18.80;7.15;;;6.50;99.90;;;;;;5014087;28;20072;-77
2023/11/22 11:06:10;;;;;;;17.73;6.80;;;6.60;99.90;;;;;;5013830;28;20029;-77
2023/11/22 11:08:38;;;;;;;15.88;7.32;;;6.60;99.90;;;;;;5013923;28;20040;-77
2023/11/22 11:11:05;;;;;;;18.00;7.15;;;6.70;99.90;;;;;;5013951;28;20481;-77
2023/11/22 11:13:32;;;;;;;16.20;6.82;;;6.70;99.90;;;;;;5014590;28;20022;-77
2023/11/22 11:15:59;;;;;;;17.38;6.80;;;6.70;99.90;;;;;;5013978;28;20018;-77
2023/11/22 11:18:27;;;;;;;16.23;6.95;;;6.80;99.90;;;;;;5013934;28;20026;-77
2023/11/22 11:20:56;;;;;;;22.85;7.10;;;6.80;99.90;;;;;;5014166;28;20018;-77
2023/11/22 11:23:31;;;;;;;17.77;6.90;;;6.80;99.90;;;;;;5016139;28;20524;-77
2023/11/22 11:26:15;;;;;;;17.92;6.53;;;6.70;99.90;;;;;;5016791;28;20037;-77
2023/11/22 11:28:47;;;;;;;19.75;7.47;;;6.70;99.90;;;;;;5017493;28;20033;-78
2023/11/22 11:31:14;;;;;;;17.10;6.88;;;6.70;99.90;;;;;;5017234;28;20022;-78
2023/11/22 11:33:48;;;;;;;16.60;7.13;;;6.60;99.90;;;;;;5017033;28;20025;-77
2023/11/22 11:36:31;;;;;;;21.73;7.65;;;6.50;99.90;;;;;;5015763;28;20114;-78
2023/11/22 11:38:59;;;;;;;16.25;7.72;;;6.50;99.90;;;;;;5016056;28;20053;-78
2023/11/22 11:41:32;;;;;;;20.40;7.32;;;6.90;99.90;;;;;;5016233;28;20021;-78
2023/11/22 11:43:58;;;;;;;18.45;7.63;;;6.50;99.90;;;;;;5016932;28;20501;-78
2023/11/22 11:46:27;;;;;;;20.05;8.32;;;6.50;99.90;;;;;;5015984;28;20033;-78
2023/11/22 11:48:54;;;;;;;16.90;7.72;;;6.50;99.90;;;;;;5017086;28;20489;-78
2023/11/22 11:51:24;;;;;;;19.30;8.48;;;6.60;99.90;;;;;;5015759;28;20025;-78
2023/11/22 11:53:50;;;;;;;20.15;8.18;;;6.60;99.90;;;;;;5016933;28;20118;-78
2023/11/22 11:56:17;;;;;;;18.52;7.93;;;6.70;99.90;;;;;;5016995;28;20414;-78
2023/11/22 11:58:44;;;;;;;19.60;9.07;;;7.80;99.90;;;;;;5017055;28;20030;-77
2023/11/22 12:01:13;;;;;;;18.88;8.35;;;6.80;99.90;;;;;;5016628;28;20036;-76
2023/11/22 12:03:39;;;;;;;17.80;8.52;;;6.80;99.90;;;;;;5015374;28;20029;-76
2023/11/22 12:06:06;;;;;;;19.23;8.88;;;6.80;99.90;;;;;;5016842;28;20034;-76
2023/11/22 12:08:36;;;;;;;19.38;8.25;;;6.80;99.90;;;;;;5016448;28;20029;-76
2023/11/22 12:11:03;;;;;;;21.23;8.32;;;6.90;99.90;;;;;;5016702;28;20021;-76
2023/11/22 12:13:29;;;;;;;18.02;7.70;;;6.90;99.90;;;;;;5016644;28;20022;-76
2023/11/22 12:15:55;;;;;;;16.63;7.93;;;6.90;99.90;;;;;;5016641;28;20037;-76
2023/11/22 12:18:20;;;;;;;19.48;8.95;;;7.10;99.90;;;;;;5015096;28;20036;-76
2023/11/22 12:20:57;;;;;;;19.00;8.35;;;7.10;99.90;;;;;;5017035;28;20017;-76
2023/11/22 12:23:27;;;;;;;20.13;7.50;;;8.10;99.90;;;;;;5016677;28;20104;-76
2023/11/22 12:26:01;;;;;;;16.85;7.63;;;7.30;99.90;;;;;;5016809;28;20473;-76
2023/11/22 12:28:28;;;;;;;17.42;7.40;;;7.50;99.90;;;;;;5016135;28;20022;-76
2023/11/22 12:30:54;;;;;;;15.43;7.47;;;7.70;99.90;;;;;;5016114;28;20057;-76
2023/11/22 12:33:20;;;;;;;16.48;7.93;;;8.40;99.90;;;;;;5015675;28;20062;-76
2023/11/22 12:35:47;;;;;;;14.35;6.88;;;8.00;99.90;;;;;;5015948;28;20022;-76
2023/11/22 12:38:12;;;;;;;14.43;6.82;;;8.20;99.90;;;;;;5016289;28;20032;-75
2023/11/22 12:40:43;;;;;;;16.42;6.50;;;8.10;99.90;;;;;;5016325;28;20095;-76
2023/11/22 12:43:09;;;;;;;14.82;7.07;;;8.10;99.90;;;;;;5016092;28;20540;-76
2023/11/22 12:45:38;;;;;;;17.13;8.10;;;8.10;99.90;;;;;;5016028;28;20029;-76
2023/11/22 12:48:23;;;;;;;14.73;6.55;;;8.10;99.90;;;;;;5015615;28;20022;-76
2023/11/22 12:50:50;;;;;;;17.30;7.45;;;8.00;99.90;;;;;;5015502;28;20088;-76